Time;durP1;ratioP1;P1;durP2;ratioP2;P2;SDS_P1;SDS_P2;PMS_P1;PMS_P2;Temp;Humidity;BMP_temperature;BMP_pressure;BME280_temperature;BME280_humidity;BME280_pressure;Samples;Min_cycle;Max_cycle;Signal;HPM_P1;HPM_P2
2024/01/26 00:01:39;;;;;;;4.15;2.30;;;8.40;99.90;;;;;;5038600;28;20048;-81
2024/01/26 00:04:05;;;;;;;5.38;2.10;;;8.40;99.90;;;;;;5039711;28;20717;-81
2024/01/26 00:06:31;;;;;;;3.22;2.20;;;8.40;99.90;;;;;;5045077;28;20052;-80
2024/01/26 00:09:13;;;;;;;4.43;1.90;;;8.40;99.90;;;;;;5042675;28;20025;-80
2024/01/26 00:11:40;;;;;;;1.63;1.52;;;8.40;99.90;;;;;;5031450;28;20052;-80
2024/01/26 00:14:07;;;;;;;2.13;1.92;;;8.40;99.90;;;;;;5044301;28;20029;-81
2024/01/26 00:16:35;;;;;;;4.47;3.38;;;8.40;99.90;;;;;;5049377;28;20036;-77
2024/01/26 00:19:03;;;;;;;2.40;1.77;;;8.40;99.90;;;;;;5041926;28;20021;-80
2024/01/26 00:21:30;;;;;;;2.70;2.47;;;8.40;99.90;;;;;;5044006;28;20033;-79
2024/01/26 00:23:56;;;;;;;2.78;2.45;;;8.40;99.90;;;;;;5039717;28;20025;-79
2024/01/26 00:26:22;;;;;;;1.45;1.35;;;8.40;99.90;;;;;;5042054;28;20045;-79
2024/01/26 00:28:49;;;;;;;4.05;3.08;;;8.40;99.90;;;;;;5041861;28;20036;-79
2024/01/26 00:31:19;;;;;;;10.95;1.98;;;8.40;99.90;;;;;;5042240;28;20029;-77
2024/01/26 00:33:46;;;;;;;3.73;3.43;;;8.30;99.90;;;;;;5044343;28;20032;-80
2024/01/26 00:36:13;;;;;;;2.50;2.30;;;8.30;99.90;;;;;;5041513;28;20033;-79
2024/01/26 00:38:40;;;;;;;2.92;2.67;;;8.30;99.90;;;;;;5048286;28;20045;-80
2024/01/26 00:41:06;;;;;;;5.00;3.70;;;8.30;99.90;;;;;;5043466;28;20052;-80
2024/01/26 00:43:33;;;;;;;5.38;4.70;;;8.30;99.90;;;;;;5044526;28;20040;-80
2024/01/26 00:45:59;;;;;;;3.80;2.72;;;8.30;99.90;;;;;;5040095;28;20033;-80
2024/01/26 00:48:28;;;;;;;2.80;2.42;;;8.30;99.90;;;;;;5047878;28;20029;-80
2024/01/26 00:50:54;;;;;;;10.80;4.90;;;8.30;99.90;;;;;;5049100;28;20056;-81
2024/01/26 00:53:22;;;;;;;5.45;3.05;;;8.30;99.90;;;;;;5048031;28;20033;-81
2024/01/26 00:55:49;;;;;;;4.95;2.95;;;8.30;99.90;;;;;;5046237;28;20461;-82
2024/01/26 00:58:16;;;;;;;5.68;2.28;;;8.30;99.90;;;;;;5052321;28;20029;-78
2024/01/26 01:00:44;;;;;;;2.50;2.30;;;8.30;99.90;;;;;;5055202;28;20029;-79
2024/01/26 01:03:11;;;;;;;3.50;3.00;;;8.30;99.90;;;;;;5070046;28;20013;-79
2024/01/26 01:05:37;;;;;;;2.60;2.35;;;8.30;99.90;;;;;;5062013;28;20025;-78
2024/01/26 01:08:04;;;;;;;3.50;2.05;;;8.30;99.90;;;;;;5057806;28;20036;-79
2024/01/26 01:10:30;;;;;;;2.70;2.33;;;8.30;99.90;;;;;;5064064;28;20045;-78
2024/01/26 01:12:57;;;;;;;3.08;2.50;;;8.30;99.90;;;;;;5060831;28;20021;-80
2024/01/26 01:15:23;;;;;;;4.88;3.08;;;8.30;99.90;;;;;;5059679;28;20032;-80
2024/01/26 01:17:49;;;;;;;8.45;3.90;;;8.30;99.90;;;;;;5062973;28;20036;-78
2024/01/26 01:20:16;;;;;;;2.85;2.65;;;8.30;99.90;;;;;;5059695;28;20500;-75
2024/01/26 01:22:43;;;;;;;3.60;2.25;;;8.30;99.90;;;;;;5062950;28;20035;-76
2024/01/26 01:25:12;;;;;;;2.88;2.60;;;8.30;99.90;;;;;;5058429;28;20029;-82
2024/01/26 01:27:38;;;;;;;1.33;1.23;;;8.30;99.90;;;;;;5052778;28;20033;-77
2024/01/26 01:30:06;;;;;;;6.07;3.55;;;8.30;99.90;;;;;;5054312;28;20025;-80
2024/01/26 01:32:33;;;;;;;4.72;2.92;;;8.30;99.90;;;;;;5061379;28;20033;-81
2024/01/26 01:35:00;;;;;;;5.57;2.80;;;8.30;99.90;;;;;;5054376;28;20024;-81
2024/01/26 01:37:27;;;;;;;3.65;2.47;;;8.30;99.90;;;;;;5058329;28;20029;-81
2024/01/26 01:39:53;;;;;;;4.82;2.85;;;8.30;99.90;;;;;;5056682;28;20037;-82
2024/01/26 01:42:19;;;;;;;5.90;4.38;;;8.20;99.90;;;;;;5058399;28;20051;-81
2024/01/26 01:44:46;;;;;;;3.28;2.97;;;8.20;99.90;;;;;;5054906;28;20028;-80
2024/01/26 01:47:13;;;;;;;10.90;3.08;;;8.20;99.90;;;;;;5064622;28;20051;-78
2024/01/26 01:49:41;;;;;;;3.92;3.30;;;8.20;99.90;;;;;;5075166;28;20035;-77
2024/01/26 01:52:09;;;;;;;3.10;2.60;;;8.20;99.90;;;;;;5060477;28;20017;-79
2024/01/26 01:54:37;;;;;;;5.93;3.42;;;8.20;99.90;;;;;;5065603;28;20032;-79
2024/01/26 01:57:04;;;;;;;2.92;2.05;;;8.20;99.90;;;;;;5063169;28;20039;-79
2024/01/26 01:59:31;;;;;;;6.22;2.50;;;8.20;99.90;;;;;;5067187;28;20033;-80
2024/01/26 02:01:57;;;;;;;4.35;1.90;;;8.20;99.90;;;;;;5060622;28;20452;-79
2024/01/26 02:04:24;;;;;;;12.52;3.70;;;8.20;99.90;;;;;;5069191;28;20033;-82
2024/01/26 02:06:55;;;;;;;4.40;3.45;;;8.20;99.90;;;;;;5065837;28;20021;-79
2024/01/26 02:09:21;;;;;;;;;;;8.20;99.90;;;;;;5064320;28;20040;-81
2024/01/26 02:11:47;;;;;;;2.60;1.70;;;8.20;99.90;;;;;;5060421;28;19894;-76
2024/01/26 02:14:13;;;;;;;3.85;3.55;;;8.20;99.90;;;;;;5063233;28;20030;-80
2024/01/26 02:16:39;;;;;;;3.50;2.75;;;8.20;99.90;;;;;;5063355;28;20040;-76
2024/01/26 02:19:06;;;;;;;3.90;2.40;;;8.20;99.90;;;;;;5064737;28;20032;-78
2024/01/26 02:21:32;;;;;;;4.50;3.47;;;8.20;99.90;;;;;;5061611;28;20041;-80
2024/01/26 02:23:58;;;;;;;3.60;3.30;;;8.10;99.90;;;;;;5061608;28;20033;-80
2024/01/26 02:26:24;;;;;;;6.32;2.90;;;8.20;99.90;;;;;;5062798;28;20030;-80
2024/01/26 02:28:50;;;;;;;3.55;2.92;;;8.10;99.90;;;;;;5060906;28;20047;-81
2024/01/26 02:31:16;;;;;;;3.33;2.70;;;8.20;99.90;;;;;;5055378;28;20040;-79
2024/01/26 02:33:42;;;;;;;4.97;2.53;;;8.20;99.90;;;;;;5063287;28;20043;-77
2024/01/26 02:36:09;;;;;;;3.28;2.47;;;8.20;99.90;;;;;;5061369;28;20031;-80
2024/01/26 02:38:35;;;;;;;3.78;2.90;;;8.20;99.90;;;;;;5063884;28;20036;-78
2024/01/26 02:41:01;;;;;;;5.82;3.38;;;8.20;99.90;;;;;;5060645;28;20064;-80
2024/01/26 02:43:27;;;;;;;4.80;3.97;;;8.20;99.90;;;;;;5062422;28;20017;-80
2024/01/26 02:45:53;;;;;;;6.45;3.58;;;8.20;99.90;;;;;;5064217;28;20048;-80
2024/01/26 02:48:23;;;;;;;17.10;4.05;;;8.10;99.90;;;;;;5061538;28;20020;-80
2024/01/26 02:50:49;;;;;;;3.72;2.92;;;8.20;99.90;;;;;;5075403;28;20040;-78
2024/01/26 02:53:15;;;;;;;3.28;2.08;;;8.20;99.90;;;;;;5058180;28;20040;-81
2024/01/26 02:55:41;;;;;;;1.58;1.48;;;8.20;99.90;;;;;;5047871;28;20028;-79
2024/01/26 02:58:07;;;;;;;2.90;1.67;;;8.20;99.90;;;;;;5048522;28;20025;-81
2024/01/26 03:00:34;;;;;;;2.50;2.30;;;8.20;99.90;;;;;;5046228;28;20053;-81
2024/01/26 03:03:00;;;;;;;2.90;2.63;;;8.30;99.90;;;;;;5049182;28;20033;-81
2024/01/26 03:05:26;;;;;;;2.67;2.47;;;8.30;99.90;;;;;;5043187;28;20022;-82
2024/01/26 03:07:55;;;;;;;2.42;2.22;;;8.30;99.90;;;;;;5038998;28;20034;-81
2024/01/26 03:10:21;;;;;;;3.15;2.88;;;8.30;99.90;;;;;;5039926;28;20032;-81
2024/01/26 03:12:48;;;;;;;2.63;2.28;;;8.30;99.90;;;;;;5039909;28;20033;-80
2024/01/26 03:15:14;;;;;;;3.85;2.97;;;8.30;99.90;;;;;;5044751;28;20033;-80
2024/01/26 03:17:40;;;;;;;1.35;1.10;;;8.30;99.90;;;;;;5038360;28;20446;-80
2024/01/26 03:20:08;;;;;;;2.53;1.85;;;8.40;99.90;;;;;;5044623;28;20029;-79
2024/01/26 03:22:34;;;;;;;1.38;0.90;;;8.40;99.90;;;;;;5043867;28;20136;-79
2024/01/26 03:25:02;;;;;;;0.38;0.35;;;8.50;99.90;;;;;;5047584;28;20066;-80
2024/01/26 03:27:28;;;;;;;2.42;1.20;;;8.50;99.90;;;;;;5034759;28;20048;-80
2024/01/26 03:29:54;;;;;;;15.43;1.50;;;8.50;99.90;;;;;;5043193;28;20035;-80
2024/01/26 03:32:20;;;;;;;2.45;1.20;;;8.60;99.90;;;;;;5039271;28;20044;-79
2024/01/26 03:34:46;;;;;;;0.52;0.52;;;8.60;99.90;;;;;;5040127;28;20335;-78
2024/01/26 03:37:13;;;;;;;0.52;0.52;;;8.60;99.90;;;;;;5039505;28;20056;-79
2024/01/26 03:39:39;;;;;;;1.20;0.93;;;8.60;99.90;;;;;;5037456;28;20470;-80
2024/01/26 03:42:06;;;;;;;1.20;1.10;;;8.70;99.90;;;;;;5039510;28;20292;-79
2024/01/26 03:44:32;;;;;;;1.75;1.65;;;8.70;99.90;;;;;;5044754;28;20041;-80
2024/01/26 03:46:59;;;;;;;4.85;1.63;;;8.70;99.90;;;;;;5047575;28;20466;-80
2024/01/26 03:49:25;;;;;;;5.05;1.85;;;8.70;99.90;;;;;;5045012;28;20060;-79
2024/01/26 03:51:51;;;;;;;0.45;0.45;;;8.70;99.90;;;;;;5045587;28;20052;-80
2024/01/26 03:54:17;;;;;;;1.45;1.20;;;8.70;99.90;;;;;;5043801;28;20024;-79
2024/01/26 03:56:44;;;;;;;3.72;1.92;;;8.70;99.90;;;;;;5062815;28;20028;-81
2024/01/26 03:59:10;;;;;;;5.35;2.17;;;8.70;99.90;;;;;;5046469;28;20451;-80
2024/01/26 04:01:36;;;;;;;1.08;1.08;;;8.70;99.90;;;;;;5046736;28;20029;-80
2024/01/26 04:04:02;;;;;;;1.92;1.58;;;8.70;99.90;;;;;;5043557;28;20034;-80
2024/01/26 04:06:28;;;;;;;0.55;0.55;;;8.70;99.90;;;;;;5039188;28;20041;-80
2024/01/26 04:08:56;;;;;;;1.35;0.70;;;8.70;99.90;;;;;;5041504;28;20037;-80
2024/01/26 04:11:22;;;;;;;0.30;0.30;;;8.70;99.90;;;;;;5039558;28;20055;-81
2024/01/26 04:13:48;;;;;;;1.80;1.25;;;8.70;99.90;;;;;;5046609;28;20058;-78
2024/01/26 04:16:14;;;;;;;1.30;0.68;;;8.70;99.90;;;;;;5053073;28;20025;-80
2024/01/26 04:18:41;;;;;;;0.75;0.75;;;8.70;99.90;;;;;;5046263;28;20067;-81
2024/01/26 04:21:07;;;;;;;0.82;0.47;;;8.70;99.90;;;;;;5041974;28;20248;-80
2024/01/26 04:23:33;;;;;;;11.63;2.10;;;8.80;99.90;;;;;;5043356;28;20036;-80
2024/01/26 04:26:00;;;;;;;0.47;0.45;;;8.80;99.90;;;;;;5044166;28;20037;-81
2024/01/26 04:28:26;;;;;;;1.23;1.13;;;8.80;99.90;;;;;;5040054;28;20394;-81
2024/01/26 04:30:53;;;;;;;0.75;0.75;;;8.80;99.90;;;;;;5038825;28;20026;-80
2024/01/26 04:33:19;;;;;;;0.52;0.47;;;8.80;99.90;;;;;;5039689;28;20026;-81
2024/01/26 04:35:45;;;;;;;0.20;0.20;;;8.80;99.90;;;;;;5039409;28;20362;-82
2024/01/26 04:38:11;;;;;;;0.15;0.15;;;8.80;99.90;;;;;;5041650;28;20044;-82
2024/01/26 04:40:38;;;;;;;0.63;0.63;;;8.80;99.90;;;;;;5043250;28;20045;-82
2024/01/26 04:43:05;;;;;;;0.35;0.30;;;8.80;99.90;;;;;;5040256;28;20029;-82
2024/01/26 04:45:31;;;;;;;0.10;0.10;;;8.80;99.90;;;;;;5044031;28;20037;-83
2024/01/26 04:47:58;;;;;;;0.30;0.30;;;8.80;99.90;;;;;;5039327;28;20064;-84
2024/01/26 04:50:24;;;;;;;2.83;1.48;;;8.80;99.90;;;;;;5038924;28;20033;-83
2024/01/26 04:52:52;;;;;;;0.50;0.32;;;8.90;99.90;;;;;;5044970;28;20028;-79
2024/01/26 04:55:30;;;;;;;9.75;3.50;;;8.90;99.90;;;;;;5040184;28;20443;-84
2024/01/26 04:57:56;;;;;;;5.00;3.47;;;8.90;99.90;;;;;;5037015;28;20029;-82
2024/01/26 05:00:23;;;;;;;9.43;2.50;;;8.90;99.90;;;;;;5042333;28;20044;-83
2024/01/26 05:02:49;;;;;;;4.10;2.60;;;8.90;99.90;;;;;;5041440;28;20036;-78
2024/01/26 05:05:16;;;;;;;2.22;1.60;;;8.90;99.90;;;;;;5038012;28;20028;-82
2024/01/26 05:07:43;;;;;;;0.60;0.60;;;8.90;99.90;;;;;;5046709;28;20036;-82
2024/01/26 05:10:11;;;;;;;1.50;1.40;;;8.90;99.90;;;;;;5049896;28;20042;-82
2024/01/26 05:12:37;;;;;;;2.78;1.65;;;8.90;99.90;;;;;;5054603;28;20024;-82
2024/01/26 05:15:05;;;;;;;2.00;1.80;;;8.90;99.90;;;;;;5048550;28;20045;-81
2024/01/26 05:17:32;;;;;;;2.67;2.28;;;8.90;99.90;;;;;;5037214;28;20033;-82
2024/01/26 05:19:58;;;;;;;2.78;1.50;;;8.90;99.90;;;;;;5041960;28;20055;-82
2024/01/26 05:22:24;;;;;;;3.97;3.65;;;8.90;99.90;;;;;;5039633;28;20071;-84
2024/01/26 05:24:50;;;;;;;4.03;1.98;;;8.90;99.90;;;;;;5046057;28;20029;-78
2024/01/26 05:27:16;;;;;;;0.65;0.65;;;8.90;99.90;;;;;;5039304;28;20037;-82
2024/01/26 05:29:42;;;;;;;0.32;0.32;;;8.90;99.90;;;;;;5044969;28;20048;-84
2024/01/26 05:32:09;;;;;;;0.75;0.70;;;8.90;99.90;;;;;;5040627;28;20362;-84
2024/01/26 05:34:36;;;;;;;0.50;0.50;;;8.90;99.90;;;;;;5046903;28;20029;-84
2024/01/26 05:37:02;;;;;;;0.40;0.40;;;8.90;99.90;;;;;;5038649;28;20347;-83
2024/01/26 05:39:32;;;;;;;0.63;0.52;;;8.90;99.90;;;;;;5041532;28;20036;-84
2024/01/26 05:41:58;;;;;;;0.45;0.32;;;8.80;99.90;;;;;;5043655;28;20045;-83
2024/01/26 05:44:24;;;;;;;0.60;0.43;;;8.90;99.90;;;;;;5040439;28;20115;-84
2024/01/26 05:46:51;;;;;;;0.43;0.43;;;8.80;99.90;;;;;;5039195;28;20030;-79
2024/01/26 05:49:17;;;;;;;0.60;0.60;;;8.80;99.90;;;;;;5040442;28;20033;-83
2024/01/26 05:51:44;;;;;;;0.60;0.60;;;8.80;99.90;;;;;;5043553;28;20048;-83
2024/01/26 05:54:12;;;;;;;2.13;2.00;;;8.80;99.90;;;;;;5040290;28;20024;-84
2024/01/26 05:56:40;;;;;;;7.25;5.20;;;8.80;99.90;;;;;;5042603;28;20028;-84
2024/01/26 05:59:07;;;;;;;3.97;2.85;;;8.80;99.90;;;;;;5041765;28;20373;-85
2024/01/26 06:01:34;;;;;;;3.88;2.53;;;8.80;99.90;;;;;;5040320;28;20033;-84
2024/01/26 06:04:01;;;;;;;0.93;0.93;;;8.80;99.90;;;;;;5039307;28;20028;-84
2024/01/26 06:06:27;;;;;;;1.33;0.60;;;8.80;99.90;;;;;;5040622;28;20132;-84
2024/01/26 06:08:53;;;;;;;2.05;1.88;;;8.90;99.90;;;;;;5039846;28;20041;-79
2024/01/26 06:11:20;;;;;;;4.05;2.35;;;8.80;99.90;;;;;;5035492;28;20033;-82
2024/01/26 06:13:46;;;;;;;2.42;1.73;;;8.90;99.90;;;;;;5040175;28;20021;-84
2024/01/26 06:16:14;;;;;;;0.88;0.85;;;8.90;99.90;;;;;;5042735;28;20029;-83
2024/01/26 06:18:46;;;;;;;4.03;2.80;;;8.90;99.90;;;;;;5034843;28;20434;-83
2024/01/26 06:21:12;;;;;;;3.50;3.03;;;8.90;99.90;;;;;;5035146;28;20033;-82
2024/01/26 06:23:39;;;;;;;1.95;1.70;;;8.90;99.90;;;;;;5038317;28;20033;-84
2024/01/26 06:26:05;;;;;;;3.58;2.28;;;8.90;99.90;;;;;;5037945;28;20034;-83
2024/01/26 06:28:31;;;;;;;1.67;1.52;;;8.90;99.90;;;;;;5040475;28;20040;-83
2024/01/26 06:30:57;;;;;;;2.92;2.40;;;8.90;99.90;;;;;;5034276;28;20025;-83
2024/01/26 06:33:24;;;;;;;2.30;2.05;;;8.90;99.90;;;;;;5035260;28;20025;-84
2024/01/26 06:35:50;;;;;;;1.35;1.25;;;8.90;99.90;;;;;;5041492;28;20036;-81
2024/01/26 06:38:16;;;;;;;2.08;1.88;;;8.90;99.90;;;;;;5044607;28;20033;-87
2024/01/26 06:40:43;;;;;;;1.15;1.00;;;9.00;99.90;;;;;;5045115;28;20045;-87
2024/01/26 06:43:09;;;;;;;1.98;1.85;;;9.00;99.90;;;;;;5044237;28;20024;-88
2024/01/26 06:45:35;;;;;;;1.17;0.98;;;9.00;99.90;;;;;;5036835;28;20484;-88
2024/01/26 06:48:02;;;;;;;1.70;1.27;;;9.10;99.90;;;;;;5043962;28;20556;-87
2024/01/26 06:50:28;;;;;;;1.15;0.85;;;9.00;99.90;;;;;;5042298;28;20033;-88
2024/01/26 06:52:54;;;;;;;0.82;0.82;;;9.10;99.90;;;;;;5045203;28;20041;-87
2024/01/26 06:55:20;;;;;;;0.98;0.95;;;9.10;99.90;;;;;;5044181;28;20033;-87
2024/01/26 06:57:46;;;;;;;1.05;0.95;;;9.10;99.90;;;;;;5040917;28;20104;-87
2024/01/26 07:00:13;;;;;;;2.63;1.02;;;9.10;99.90;;;;;;5036950;28;20034;-87
2024/01/26 07:02:39;;;;;;;2.58;1.65;;;9.10;99.90;;;;;;5044125;28;20028;-85
2024/01/26 07:05:06;;;;;;;3.72;1.50;;;9.10;99.90;;;;;;5037641;28;20036;-86
2024/01/26 07:07:32;;;;;;;1.50;1.40;;;9.10;99.90;;;;;;5039743;28;20025;-85
2024/01/26 07:09:58;;;;;;;1.25;1.15;;;9.10;99.90;;;;;;5036700;28;20037;-87
2024/01/26 07:12:24;;;;;;;1.55;0.82;;;9.10;99.90;;;;;;5034830;28;20419;-86
2024/01/26 07:14:51;;;;;;;0.10;0.10;;;9.10;99.90;;;;;;5039130;28;20042;-81
2024/01/26 07:17:17;;;;;;;1.10;1.00;;;9.20;99.90;;;;;;5040365;28;20025;-85
2024/01/26 07:19:43;;;;;;;0.70;0.55;;;9.20;99.90;;;;;;5041833;28;20038;-82
2024/01/26 07:22:09;;;;;;;2.38;0.60;;;9.10;99.90;;;;;;5039517;28;20363;-82
2024/01/26 07:24:36;;;;;;;0.50;0.50;;;9.10;99.90;;;;;;5041709;28;20025;-83
2024/01/26 07:27:02;;;;;;;0.65;0.60;;;9.10;99.90;;;;;;5042074;28;20032;-80
2024/01/26 07:29:28;;;;;;;0.30;0.30;;;9.10;99.90;;;;;;5042226;28;20060;-83
2024/01/26 07:31:54;;;;;;;0.30;0.30;;;9.10;99.90;;;;;;5043775;28;20036;-78
2024/01/26 07:34:21;;;;;;;0.10;0.10;;;9.10;99.90;;;;;;5046305;28;20450;-83
2024/01/26 07:36:47;;;;;;;0.40;0.32;;;9.20;99.90;;;;;;5043922;28;20455;-84
2024/01/26 07:39:13;;;;;;;0.50;0.50;;;9.10;99.90;;;;;;5041733;28;20037;-87
2024/01/26 07:41:39;;;;;;;0.30;0.30;;;9.10;99.90;;;;;;5044037;28;20462;-83
2024/01/26 07:44:05;;;;;;;0.30;0.30;;;9.20;99.90;;;;;;5039237;28;20040;-82
2024/01/26 07:46:32;;;;;;;3.08;1.02;;;9.10;99.90;;;;;;5045554;28;20021;-82
2024/01/26 07:49:00;;;;;;;0.22;0.22;;;9.10;99.90;;;;;;5048953;28;20044;-85
2024/01/26 07:51:27;;;;;;;0.45;0.45;;;9.10;99.90;;;;;;5045858;28;20045;-86
2024/01/26 07:53:53;;;;;;;0.70;0.70;;;9.10;99.90;;;;;;5065613;28;20051;-79
2024/01/26 07:56:20;;;;;;;2.03;0.93;;;9.20;99.90;;;;;;5069374;28;20028;-86
2024/01/26 07:58:46;;;;;;;0.50;0.43;;;9.20;99.90;;;;;;5053320;28;20406;-84
2024/01/26 08:01:13;;;;;;;1.13;1.02;;;9.20;92.20;;;;;;5050602;28;20493;-84
2024/01/26 08:03:39;;;;;;;0.88;0.60;;;9.30;72.20;;;;;;5050319;28;20401;-85
2024/01/26 08:06:06;;;;;;;0.47;0.47;;;9.30;22.00;;;;;;5048757;28;20029;-84
2024/01/26 08:08:32;;;;;;;0.98;0.90;;;9.30;1.90;;;;;;5050736;28;20053;-85
2024/01/26 08:10:59;;;;;;;5.68;0.77;;;9.40;1.00;;;;;;5049621;28;20132;-86
2024/01/26 08:13:26;;;;;;;0.82;0.50;;;9.40;1.00;;;;;;5051001;28;20040;-87
2024/01/26 08:15:52;;;;;;;1.08;0.63;;;9.40;1.00;;;;;;5047813;28;20032;-84
2024/01/26 08:18:18;;;;;;;0.65;0.65;;;9.40;1.00;;;;;;5039418;28;20036;-84
2024/01/26 08:20:44;;;;;;;0.10;0.10;;;9.40;1.00;;;;;;5038703;28;20084;-81
2024/01/26 08:23:11;;;;;;;9.63;2.13;;;9.50;1.00;;;;;;5039473;28;20030;-82
2024/01/26 08:25:37;;;;;;;0.73;0.70;;;9.50;1.00;;;;;;5040259;28;20037;-83
2024/01/26 08:28:03;;;;;;;0.80;0.68;;;9.50;1.00;;;;;;5039057;28;20033;-82
2024/01/26 08:30:30;;;;;;;0.55;0.55;;;9.60;1.00;;;;;;5036240;28;20026;-82
2024/01/26 08:32:56;;;;;;;1.13;0.90;;;9.60;99.90;;;;;;5039793;28;20029;-79
2024/01/26 08:35:22;;;;;;;1.48;0.75;;;9.50;99.90;;;;;;5040359;28;20036;-82
2024/01/26 08:37:48;;;;;;;0.57;0.57;;;9.60;99.90;;;;;;5042822;28;20037;-82
2024/01/26 08:40:15;;;;;;;2.15;1.10;;;9.60;99.90;;;;;;5045895;28;20047;-82
2024/01/26 08:42:44;;;;;;;0.35;0.35;;;9.60;99.90;;;;;;5046426;28;20028;-81
2024/01/26 08:45:10;;;;;;;0.10;0.10;;;9.60;99.90;;;;;;5049274;28;20037;-83
2024/01/26 08:47:36;;;;;;;0.73;0.73;;;9.60;99.90;;;;;;5038652;28;20045;-82
2024/01/26 08:50:02;;;;;;;0.47;0.47;;;9.60;99.90;;;;;;5035967;28;20033;-82
2024/01/26 08:52:29;;;;;;;0.65;0.65;;;9.50;99.90;;;;;;5041675;28;20029;-83
2024/01/26 08:54:55;;;;;;;1.52;1.00;;;9.50;99.90;;;;;;5039254;28;20037;-80
2024/01/26 08:57:21;;;;;;;2.10;1.38;;;9.50;99.90;;;;;;5038067;28;20030;-82
2024/01/26 08:59:47;;;;;;;3.10;1.95;;;9.50;99.90;;;;;;5037043;28;20056;-82
2024/01/26 09:02:13;;;;;;;1.52;0.93;;;9.40;99.90;;;;;;5038371;28;20037;-81
2024/01/26 09:04:39;;;;;;;0.20;0.20;;;9.40;99.90;;;;;;5039678;28;20029;-82
2024/01/26 09:07:06;;;;;;;1.75;1.65;;;9.40;99.90;;;;;;5037384;28;20041;-83
2024/01/26 09:09:32;;;;;;;6.28;1.80;;;9.40;99.90;;;;;;5041632;28;20041;-81
2024/01/26 09:11:59;;;;;;;2.15;1.45;;;9.40;1.00;;;;;;5043881;28;20465;-81
2024/01/26 09:14:25;;;;;;;0.32;0.32;;;9.40;1.00;;;;;;5039323;28;20359;-81
2024/01/26 09:16:52;;;;;;;3.78;1.45;;;9.40;1.00;;;;;;5039245;28;20513;-81
2024/01/26 09:19:19;;;;;;;0.47;0.47;;;9.40;1.00;;;;;;5038321;28;20025;-80
2024/01/26 09:21:45;;;;;;;0.93;0.40;;;9.40;1.00;;;;;;5039858;28;20481;-81
2024/01/26 09:24:12;;;;;;;1.13;1.02;;;9.40;1.00;;;;;;5038342;28;20035;-81
2024/01/26 09:26:39;;;;;;;0.95;0.85;;;9.40;1.00;;;;;;5042571;28;20124;-81
2024/01/26 09:29:06;;;;;;;0.73;0.70;;;9.40;99.90;;;;;;5041244;28;20044;-81
2024/01/26 09:31:32;;;;;;;0.52;0.50;;;9.50;99.90;;;;;;5038052;28;20036;-81
2024/01/26 09:33:59;;;;;;;0.88;0.88;;;9.50;99.90;;;;;;5045060;28;20029;-81
2024/01/26 09:36:25;;;;;;;0.85;0.77;;;9.50;99.90;;;;;;5038234;28;20025;-80
2024/01/26 09:38:51;;;;;;;0.50;0.50;;;9.50;99.90;;;;;;5045303;28;20509;-82
2024/01/26 09:41:18;;;;;;;0.20;0.20;;;9.60;99.90;;;;;;5037416;28;20051;-80
2024/01/26 09:43:44;;;;;;;1.52;1.40;;;9.60;99.90;;;;;;5047069;28;20029;-82
2024/01/26 09:46:11;;;;;;;0.73;0.73;;;9.60;99.90;;;;;;5038170;28;20028;-82
2024/01/26 09:48:39;;;;;;;3.05;2.38;;;9.60;99.90;;;;;;5043745;28;20044;-82
2024/01/26 09:51:06;;;;;;;2.95;2.35;;;9.60;99.90;;;;;;5036656;28;20477;-82
2024/01/26 09:53:34;;;;;;;2.85;2.33;;;9.70;99.90;;;;;;5038314;28;20025;-82
2024/01/26 09:56:02;;;;;;;4.57;2.70;;;9.60;99.90;;;;;;5037155;28;20155;-82
2024/01/26 09:58:29;;;;;;;1.27;1.17;;;9.60;99.90;;;;;;5041459;28;20036;-83
2024/01/26 10:00:55;;;;;;;2.55;1.67;;;9.70;99.90;;;;;;5035629;28;20032;-82
2024/01/26 10:03:25;;;;;;;2.63;2.38;;;9.60;99.90;;;;;;5039731;28;20029;-82
2024/01/26 10:05:51;;;;;;;1.90;1.67;;;9.60;99.90;;;;;;5037862;28;20037;-82
2024/01/26 10:08:18;;;;;;;5.68;2.10;;;9.60;99.90;;;;;;5042417;28;20132;-82
2024/01/26 10:10:44;;;;;;;4.90;2.47;;;9.60;99.90;;;;;;5036889;28;20033;-82
2024/01/26 10:13:11;;;;;;;5.20;4.07;;;9.60;99.90;;;;;;5038232;28;20021;-82
2024/01/26 10:15:37;;;;;;;2.35;2.15;;;9.60;99.90;;;;;;5038081;28;20029;-83
2024/01/26 10:18:04;;;;;;;0.57;0.57;;;9.60;99.90;;;;;;5040535;28;20391;-82
2024/01/26 10:20:30;;;;;;;1.83;1.73;;;9.60;99.90;;;;;;5040383;28;20045;-83
2024/01/26 10:22:56;;;;;;;0.85;0.85;;;9.70;99.90;;;;;;5039025;28;20029;-82
2024/01/26 10:25:22;;;;;;;0.32;0.32;;;9.70;99.90;;;;;;5039594;28;20037;-83
2024/01/26 10:27:49;;;;;;;0.30;0.30;;;9.70;99.90;;;;;;5037338;28;20366;-83
2024/01/26 10:30:17;;;;;;;0.93;0.73;;;9.70;99.90;;;;;;5036369;28;20041;-83
2024/01/26 10:32:44;;;;;;;0.30;0.25;;;9.80;99.90;;;;;;5034178;28;20037;-83
2024/01/26 10:35:11;;;;;;;0.52;0.50;;;9.80;99.90;;;;;;5038914;28;20033;-83
2024/01/26 10:37:39;;;;;;;0.10;0.10;;;9.90;99.90;;;;;;5046803;28;20028;-81
2024/01/26 10:40:09;;;;;;;0.22;0.22;;;10.00;99.90;;;;;;5042624;28;20034;-82
2024/01/26 10:42:36;;;;;;;0.20;0.20;;;10.00;99.90;;;;;;5046495;28;20049;-81
2024/01/26 10:45:04;;;;;;;0.35;0.35;;;10.00;99.90;;;;;;5042287;28;20033;-81
2024/01/26 10:47:33;;;;;;;0.35;0.35;;;10.00;99.90;;;;;;5038553;28;20033;-82
2024/01/26 10:50:06;;;;;;;0.52;0.45;;;10.00;99.90;;;;;;5035491;28;20037;-82
2024/01/26 10:52:36;;;;;;;0.70;0.52;;;10.10;99.90;;;;;;5043627;28;20036;-82
2024/01/26 10:55:04;;;;;;;0.77;0.73;;;10.10;99.90;;;;;;5043536;28;20128;-83
2024/01/26 10:57:30;;;;;;;0.45;0.45;;;10.20;99.90;;;;;;5042107;28;20033;-86
2024/01/26 10:59:59;;;;;;;1.48;0.60;;;10.30;99.90;;;;;;5041408;28;20032;-84
2024/01/26 11:02:31;;;;;;;0.20;0.20;;;10.40;89.50;;;;;;5058588;28;20029;-83
2024/01/26 11:05:02;;;;;;;4.13;0.50;;;10.50;55.70;;;;;;5043254;28;20045;-86
2024/01/26 11:07:33;;;;;;;;;;;10.60;14.40;;;;;;5042744;28;20036;-87
2024/01/26 11:10:02;;;;;;;0.10;0.10;;;10.70;1.00;;;;;;5042637;28;19932;-90
2024/01/26 11:12:29;;;;;;;0.47;0.47;;;10.80;1.00;;;;;;5047560;28;20033;-89
2024/01/26 11:15:06;;;;;;;0.10;0.10;;;10.90;1.00;;;;;;5043738;28;20366;-90
2024/01/26 11:17:51;;;;;;;0.20;0.10;;;10.90;1.00;;;;;;5047541;28;20033;-89
2024/01/26 11:20:26;;;;;;;0.90;0.30;;;11.00;1.00;;;;;;5039918;28;20029;-90
2024/01/26 11:23:11;;;;;;;0.10;0.10;;;11.00;1.00;;;;;;5040345;28;20049;-90
2024/01/26 11:25:49;;;;;;;0.20;0.20;;;11.10;1.00;;;;;;5043706;28;20040;-89
2024/01/26 11:28:17;;;;;;;0.10;0.10;;;11.10;1.00;;;;;;5040938;28;20040;-90
2024/01/26 11:30:56;;;;;;;0.25;0.25;;;11.10;1.00;;;;;;5038720;28;20056;-87
2024/01/26 11:33:22;;;;;;;0.10;0.10;;;11.10;1.00;;;;;;5053001;28;20025;-85
2024/01/26 11:35:50;;;;;;;1.00;0.50;;;11.10;1.00;;;;;;5050203;28;20362;-87
2024/01/26 11:38:18;;;;;;;1.00;0.65;;;11.10;1.00;;;;;;5043838;28;20025;-87
2024/01/26 11:40:45;;;;;;;0.10;0.10;;;11.10;1.00;;;;;;5053887;28;20390;-89
2024/01/26 11:43:12;;;;;;;0.10;0.10;;;11.20;1.00;;;;;;5041914;28;20481;-89
2024/01/26 11:45:46;;;;;;;0.10;0.10;;;11.20;1.00;;;;;;5049163;28;20041;-86
2024/01/26 11:48:13;;;;;;;0.10;0.10;;;11.20;1.00;;;;;;5044402;28;20032;-86
2024/01/26 11:50:42;;;;;;;0.20;0.20;;;11.10;1.00;;;;;;5047104;28;20037;-86
2024/01/26 11:53:09;;;;;;;0.20;0.20;;;11.20;1.00;;;;;;5046870;28;20021;-82
2024/01/26 11:55:38;;;;;;;0.10;0.10;;;11.20;1.00;;;;;;5046237;28;20052;-81
2024/01/26 11:58:06;;;;;;;0.85;0.40;;;11.20;1.00;;;;;;5045653;28;20049;-80
2024/01/26 12:00:35;;;;;;;0.43;0.43;;;11.30;1.00;;;;;;5043061;28;20450;-87
2024/01/26 12:03:06;;;;;;;1.15;0.80;;;11.40;1.00;;;;;;5040374;28;20454;-84
2024/01/26 12:05:36;;;;;;;0.20;0.20;;;11.40;1.00;;;;;;5047131;28;20041;-85
2024/01/26 12:08:06;;;;;;;0.20;0.20;;;11.50;1.00;;;;;;5047120;28;20025;-87
2024/01/26 12:10:34;;;;;;;0.10;0.10;;;11.50;1.00;;;;;;5042506;28;20459;-87
2024/01/26 12:13:01;;;;;;;1.27;0.30;;;11.60;1.00;;;;;;5041019;28;20021;-85
2024/01/26 12:15:31;;;;;;;0.10;0.10;;;11.60;1.00;;;;;;5045652;28;20038;-86
2024/01/26 12:18:01;;;;;;;0.10;0.10;;;11.60;1.00;;;;;;5054581;28;20028;-87
2024/01/26 12:20:27;;;;;;;0.10;0.10;;;11.60;1.00;;;;;;5054921;28;20591;-88
2024/01/26 12:22:55;;;;;;;0.55;0.55;;;11.70;99.90;;;;;;5043674;28;20025;-85
2024/01/26 12:25:26;;;;;;;1.05;0.45;;;11.70;99.90;;;;;;5052484;28;20485;-84
2024/01/26 12:27:53;;;;;;;0.20;0.20;;;11.80;99.90;;;;;;5044895;28;20029;-87
2024/01/26 12:30:19;;;;;;;1.10;0.40;;;11.90;99.90;;;;;;5043470;28;20466;-87
2024/01/26 12:32:45;;;;;;;0.17;0.17;;;11.90;99.90;;;;;;5044100;28;20033;-87
2024/01/26 12:35:11;;;;;;;0.40;0.40;;;11.90;99.90;;;;;;5041983;28;20041;-84
2024/01/26 12:37:38;;;;;;;1.75;0.30;;;12.00;99.90;;;;;;5044662;28;20398;-85
2024/01/26 12:40:06;;;;;;;0.57;0.45;;;11.90;99.90;;;;;;5042724;28;20417;-86
2024/01/26 12:42:32;;;;;;;0.20;0.20;;;11.90;99.90;;;;;;5041321;28;20056;-85
2024/01/26 12:44:59;;;;;;;0.10;0.10;;;11.90;99.90;;;;;;5038430;28;20044;-83
2024/01/26 12:47:25;;;;;;;0.20;0.13;;;11.80;99.90;;;;;;5040861;28;20056;-82
2024/01/26 12:49:51;;;;;;;0.30;0.30;;;11.80;99.90;;;;;;5044590;28;20037;-84
2024/01/26 12:52:18;;;;;;;0.13;0.13;;;11.80;99.90;;;;;;5040592;28;20026;-84
2024/01/26 12:54:45;;;;;;;0.17;0.17;;;11.80;99.90;;;;;;5040015;28;20040;-84
2024/01/26 12:57:11;;;;;;;0.10;0.10;;;11.70;99.90;;;;;;5044147;28;20147;-80